sensor_id;sensor_type;location;lat;lon;timestamp;pressure;altitude;pressure_sealevel;temperature;humidity
48668;BME280;34453;52.198;5.004;2023-05-11T00:00:45;101679.50;;;12.34;100.00
48668;BME280;34453;52.198;5.004;2023-05-11T00:03:10;101676.72;;;12.36;100.00
48668;BME280;34453;52.198;5.004;2023-05-11T00:05:36;101679.91;;;12.39;100.00
48668;BME280;34453;52.198;5.004;2023-05-11T00:08:02;101677.56;;;12.36;100.00
48668;BME280;34453;52.198;5.004;2023-05-11T00:10:28;101681.72;;;12.39;100.00
48668;BME280;34453;52.198;5.004;2023-05-11T00:12:54;101679.63;;;12.42;100.00
48668;BME280;34453;52.198;5.004;2023-05-11T00:15:20;101675.09;;;12.44;100.00
48668;BME280;34453;52.198;5.004;2023-05-11T00:17:45;101666.69;;;12.41;100.00
48668;BME280;34453;52.198;5.004;2023-05-11T00:20:10;101655.31;;;12.40;100.00
48668;BME280;34453;52.198;5.004;2023-05-11T00:22:36;101656.72;;;12.44;100.00
48668;BME280;34453;52.198;5.004;2023-05-11T00:25:02;101666.41;;;12.44;100.00
48668;BME280;34453;52.198;5.004;2023-05-11T00:27:27;101660.06;;;12.47;100.00
48668;BME280;34453;52.198;5.004;2023-05-11T00:29:53;101652.63;;;12.52;100.00
48668;BME280;34453;52.198;5.004;2023-05-11T00:32:18;101655.50;;;12.49;100.00
48668;BME280;34453;52.198;5.004;2023-05-11T00:34:43;101649.31;;;12.50;100.00
48668;BME280;34453;52.198;5.004;2023-05-11T00:37:09;101646.69;;;12.50;100.00
48668;BME280;34453;52.198;5.004;2023-05-11T00:39:34;101646.28;;;12.54;100.00
48668;BME280;34453;52.198;5.004;2023-05-11T00:42:04;101645.16;;;12.57;100.00
48668;BME280;34453;52.198;5.004;2023-05-11T00:44:30;101636.88;;;12.61;100.00
48668;BME280;34453;52.198;5.004;2023-05-11T00:46:56;101647.09;;;12.64;100.00
48668;BME280;34453;52.198;5.004;2023-05-11T00:49:22;101646.56;;;12.61;100.00
48668;BME280;34453;52.198;5.004;2023-05-11T00:51:48;101646.28;;;12.54;100.00
48668;BME280;34453;52.198;5.004;2023-05-11T00:54:13;101651.78;;;12.51;100.00
48668;BME280;34453;52.198;5.004;2023-05-11T00:56:40;101649.56;;;12.47;100.00
48668;BME280;34453;52.198;5.004;2023-05-11T00:59:07;101651.75;;;12.41;100.00
48668;BME280;34453;52.198;5.004;2023-05-11T01:01:33;101657.66;;;12.34;100.00
48668;BME280;34453;52.198;5.004;2023-05-11T01:04:01;101661.94;;;12.35;100.00
48668;BME280;34453;52.198;5.004;2023-05-11T01:06:31;101665.28;;;12.37;100.00
48668;BME280;34453;52.198;5.004;2023-05-11T01:14:53;101656.03;;;12.42;100.00
48668;BME280;34453;52.198;5.004;2023-05-11T01:17:31;101655.78;;;12.46;100.00
48668;BME280;34453;52.198;5.004;2023-05-11T01:20:05;101655.91;;;12.54;100.00
48668;BME280;34453;52.198;5.004;2023-05-11T01:30:47;101661.75;;;12.57;100.00
48668;BME280;34453;52.198;5.004;2023-05-11T01:33:14;101659.81;;;12.59;100.00
48668;BME280;34453;52.198;5.004;2023-05-11T01:35:46;101655.13;;;12.63;100.00
48668;BME280;34453;52.198;5.004;2023-05-11T01:38:14;101656.78;;;12.64;100.00
48668;BME280;34453;52.198;5.004;2023-05-11T01:40:44;101659.28;;;12.65;100.00
48668;BME280;34453;52.198;5.004;2023-05-11T01:43:13;101658.47;;;12.65;100.00
48668;BME280;34453;52.198;5.004;2023-05-11T01:45:45;101650.97;;;12.60;100.00
48668;BME280;34453;52.198;5.004;2023-05-11T01:48:17;101657.31;;;12.58;100.00
48668;BME280;34453;52.198;5.004;2023-05-11T01:50:44;101652.63;;;12.52;100.00
48668;BME280;34453;52.198;5.004;2023-05-11T01:53:11;101657.00;;;12.41;100.00
48668;BME280;34453;52.198;5.004;2023-05-11T01:55:38;101653.97;;;12.36;100.00
48668;BME280;34453;52.198;5.004;2023-05-11T01:58:07;101650.75;;;12.33;100.00
48668;BME280;34453;52.198;5.004;2023-05-11T02:00:35;101650.88;;;12.31;100.00
48668;BME280;34453;52.198;5.004;2023-05-11T02:03:04;101652.56;;;12.32;100.00
48668;BME280;34453;52.198;5.004;2023-05-11T02:05:31;101659.31;;;12.35;100.00
48668;BME280;34453;52.198;5.004;2023-05-11T02:07:59;101655.88;;;12.34;100.00
48668;BME280;34453;52.198;5.004;2023-05-11T02:10:26;101671.34;;;12.37;100.00
48668;BME280;34453;52.198;5.004;2023-05-11T02:12:53;101664.06;;;12.41;100.00
48668;BME280;34453;52.198;5.004;2023-05-11T02:15:21;101676.31;;;12.40;100.00
48668;BME280;34453;52.198;5.004;2023-05-11T02:17:48;101669.84;;;12.44;100.00
48668;BME280;34453;52.198;5.004;2023-05-11T02:20:15;101679.13;;;12.49;100.00
48668;BME280;34453;52.198;5.004;2023-05-11T02:22:43;101677.19;;;12.51;100.00
48668;BME280;34453;52.198;5.004;2023-05-11T02:25:09;101683.97;;;12.53;100.00
48668;BME280;34453;52.198;5.004;2023-05-11T02:27:35;101677.78;;;12.54;100.00
48668;BME280;34453;52.198;5.004;2023-05-11T02:30:02;101677.63;;;12.56;100.00
48668;BME280;34453;52.198;5.004;2023-05-11T02:32:29;101686.19;;;12.58;100.00
48668;BME280;34453;52.198;5.004;2023-05-11T02:35:04;101690.50;;;12.59;100.00
48668;BME280;34453;52.198;5.004;2023-05-11T02:37:33;101679.28;;;12.57;100.00
48668;BME280;34453;52.198;5.004;2023-05-11T02:40:05;101674.16;;;12.55;100.00
48668;BME280;34453;52.198;5.004;2023-05-11T02:42:37;101680.00;;;12.59;100.00
48668;BME280;34453;52.198;5.004;2023-05-11T02:45:04;101678.19;;;12.59;100.00
48668;BME280;34453;52.198;5.004;2023-05-11T02:47:35;101681.13;;;12.66;100.00
48668;BME280;34453;52.198;5.004;2023-05-11T02:50:04;101684.16;;;12.71;100.00
48668;BME280;34453;52.198;5.004;2023-05-11T02:52:32;101679.19;;;12.68;100.00
48668;BME280;34453;52.198;5.004;2023-05-11T02:55:00;101680.84;;;12.69;100.00
48668;BME280;34453;52.198;5.004;2023-05-11T02:57:26;101681.81;;;12.68;100.00
48668;BME280;34453;52.198;5.004;2023-05-11T02:59:52;101681.28;;;12.74;100.00
48668;BME280;34453;52.198;5.004;2023-05-11T03:02:17;101680.19;;;12.77;100.00
48668;BME280;34453;52.198;5.004;2023-05-11T03:04:43;101686.81;;;12.81;100.00
48668;BME280;34453;52.198;5.004;2023-05-11T03:07:09;101678.09;;;12.80;100.00
48668;BME280;34453;52.198;5.004;2023-05-11T03:09:34;101687.78;;;12.80;100.00
48668;BME280;34453;52.198;5.004;2023-05-11T03:12:01;101681.41;;;12.82;100.00
48668;BME280;34453;52.198;5.004;2023-05-11T03:14:27;101680.47;;;12.83;100.00
48668;BME280;34453;52.198;5.004;2023-05-11T03:16:54;101685.84;;;12.82;100.00
48668;BME280;34453;52.198;5.004;2023-05-11T03:19:21;101685.44;;;12.77;100.00
48668;BME280;34453;52.198;5.004;2023-05-11T03:21:48;101684.59;;;12.76;100.00
48668;BME280;34453;52.198;5.004;2023-05-11T03:24:16;101683.34;;;12.80;100.00
48668;BME280;34453;52.198;5.004;2023-05-11T03:26:42;101677.84;;;12.83;100.00
48668;BME280;34453;52.198;5.004;2023-05-11T03:29:10;101683.09;;;12.83;100.00
48668;BME280;34453;52.198;5.004;2023-05-11T03:31:37;101684.75;;;12.84;100.00
48668;BME280;34453;52.198;5.004;2023-05-11T03:34:03;101676.03;;;12.84;100.00
48668;BME280;34453;52.198;5.004;2023-05-11T03:36:29;101668.97;;;12.84;100.00
48668;BME280;34453;52.198;5.004;2023-05-11T03:38:56;101677.72;;;12.85;100.00
48668;BME280;34453;52.198;5.004;2023-05-11T03:41:24;101671.88;;;12.81;100.00
48668;BME280;34453;52.198;5.004;2023-05-11T03:43:51;101669.97;;;12.83;100.00
48668;BME280;34453;52.198;5.004;2023-05-11T03:46:21;101671.59;;;12.84;100.00
48668;BME280;34453;52.198;5.004;2023-05-11T03:48:48;101670.66;;;12.85;100.00
48668;BME280;34453;52.198;5.004;2023-05-11T03:51:14;101669.69;;;12.86;100.00
48668;BME280;34453;52.198;5.004;2023-05-11T03:53:40;101671.47;;;12.86;100.00
48668;BME280;34453;52.198;5.004;2023-05-11T03:56:06;101655.03;;;12.84;100.00
48668;BME280;34453;52.198;5.004;2023-05-11T03:58:32;101656.25;;;12.80;100.00
48668;BME280;34453;52.198;5.004;2023-05-11T04:01:02;101659.59;;;12.82;100.00
48668;BME280;34453;52.198;5.004;2023-05-11T04:03:28;101657.09;;;12.80;100.00
48668;BME280;34453;52.198;5.004;2023-05-11T04:05:53;101657.09;;;12.80;100.00
48668;BME280;34453;52.198;5.004;2023-05-11T04:08:19;101651.72;;;12.82;100.00
48668;BME280;34453;52.198;5.004;2023-05-11T04:10:44;101662.91;;;12.84;100.00
48668;BME280;34453;52.198;5.004;2023-05-11T04:13:10;101653.22;;;12.84;100.00
48668;BME280;34453;52.198;5.004;2023-05-11T04:15:35;101658.47;;;12.84;100.00
48668;BME280;34453;52.198;5.004;2023-05-11T04:18:01;101648.25;;;12.81;100.00
48668;BME280;34453;52.198;5.004;2023-05-11T04:20:27;101646.88;;;12.77;100.00
48668;BME280;34453;52.198;5.004;2023-05-11T04:22:52;101646.56;;;12.80;100.00
48668;BME280;34453;52.198;5.004;2023-05-11T04:25:17;101649.91;;;12.82;100.00
48668;BME280;34453;52.198;5.004;2023-05-11T04:27:43;101661.38;;;12.81;100.00
48668;BME280;34453;52.198;5.004;2023-05-11T04:30:09;101660.97;;;12.86;100.00
48668;BME280;34453;52.198;5.004;2023-05-11T04:32:34;101662.50;;;12.89;100.00
48668;BME280;34453;52.198;5.004;2023-05-11T04:35:00;101657.81;;;12.92;100.00
48668;BME280;34453;52.198;5.004;2023-05-11T04:37:25;101669.16;;;12.93;100.00
48668;BME280;34453;52.198;5.004;2023-05-11T04:39:50;101673.41;;;12.94;100.00
48668;BME280;34453;52.198;5.004;2023-05-11T04:42:16;101666.22;;;12.96;100.00
48668;BME280;34453;52.198;5.004;2023-05-11T04:44:41;101676.75;;;12.96;100.00
48668;BME280;34453;52.198;5.004;2023-05-11T04:47:07;101676.47;;;12.99;100.00
48668;BME280;34453;52.198;5.004;2023-05-11T04:49:32;101683.13;;;13.03;100.00
48668;BME280;34453;52.198;5.004;2023-05-11T04:51:57;101688.38;;;13.03;100.00
48668;BME280;34453;52.198;5.004;2023-05-11T04:54:23;101682.03;;;13.05;100.00
48668;BME280;34453;52.198;5.004;2023-05-11T04:56:48;101686.28;;;13.06;100.00
48668;BME280;34453;52.198;5.004;2023-05-11T04:59:14;101695.00;;;13.07;100.00
48668;BME280;34453;52.198;5.004;2023-05-11T05:01:39;101688.66;;;13.10;100.00
48668;BME280;34453;52.198;5.004;2023-05-11T05:04:04;101687.28;;;13.15;100.00
48668;BME280;34453;52.198;5.004;2023-05-11T05:06:30;101687.16;;;13.17;100.00
48668;BME280;34453;52.198;5.004;2023-05-11T05:08:56;101694.47;;;13.13;100.00
48668;BME280;34453;52.198;5.004;2023-05-11T05:11:22;101695.97;;;13.16;100.00
48668;BME280;34453;52.198;5.004;2023-05-11T05:13:48;101689.50;;;13.20;100.00
48668;BME280;34453;52.198;5.004;2023-05-11T05:16:13;101689.34;;;13.21;100.00
48668;BME280;34453;52.198;5.004;2023-05-11T05:18:39;101697.13;;;13.23;100.00
48668;BME280;34453;52.198;5.004;2023-05-11T05:21:04;101696.13;;;13.24;100.00
48668;BME280;34453;52.198;5.004;2023-05-11T05:23:30;101705.53;;;13.26;100.00
48668;BME280;34453;52.198;5.004;2023-05-11T05:25:56;101706.50;;;13.16;100.00
48668;BME280;34453;52.198;5.004;2023-05-11T05:28:21;101707.06;;;13.19;100.00
48668;BME280;34453;52.198;5.004;2023-05-11T05:30:47;101704.44;;;13.19;100.00
48668;BME280;34453;52.198;5.004;2023-05-11T05:33:12;101706.91;;;13.11;100.00
48668;BME280;34453;52.198;5.004;2023-05-11T05:35:38;101713.13;;;13.10;100.00
48668;BME280;34453;52.198;5.004;2023-05-11T05:38:03;101711.47;;;13.09;100.00
48668;BME280;34453;52.198;5.004;2023-05-11T05:40:29;101714.91;;;13.00;100.00
48668;BME280;34453;52.198;5.004;2023-05-11T05:42:54;101717.69;;;12.98;100.00
48668;BME280;34453;52.198;5.004;2023-05-11T05:45:20;101718.09;;;13.03;100.00
48668;BME280;34453;52.198;5.004;2023-05-11T05:47:45;101722.94;;;13.08;100.00
48668;BME280;34453;52.198;5.004;2023-05-11T05:50:13;101725.16;;;13.03;100.00
48668;BME280;34453;52.198;5.004;2023-05-11T05:52:38;101728.75;;;13.02;100.00
48668;BME280;34453;52.198;5.004;2023-05-11T05:55:04;101736.19;;;12.97;100.00
48668;BME280;34453;52.198;5.004;2023-05-11T05:57:30;101731.47;;;12.91;100.00
48668;BME280;34453;52.198;5.004;2023-05-11T05:59:55;101734.81;;;12.93;100.00
48668;BME280;34453;52.198;5.004;2023-05-11T06:02:21;101741.28;;;12.89;100.00
48668;BME280;34453;52.198;5.004;2023-05-11T06:04:46;101742.69;;;12.93;100.00
48668;BME280;34453;52.198;5.004;2023-05-11T06:07:12;101744.09;;;12.97;100.00
48668;BME280;34453;52.198;5.004;2023-05-11T06:09:38;101743.66;;;12.92;100.00
48668;BME280;34453;52.198;5.004;2023-05-11T06:12:04;101743.66;;;12.92;100.00
48668;BME280;34453;52.198;5.004;2023-05-11T06:14:30;101750.00;;;12.89;100.00
48668;BME280;34453;52.198;5.004;2023-05-11T06:16:56;101748.91;;;12.92;100.00
48668;BME280;34453;52.198;5.004;2023-05-11T06:19:22;101750.38;;;12.84;100.00
48668;BME280;34453;52.198;5.004;2023-05-11T06:21:47;101747.22;;;12.81;100.00
48668;BME280;34453;52.198;5.004;2023-05-11T06:24:13;101748.03;;;12.81;100.00
48668;BME280;34453;52.198;5.004;2023-05-11T06:26:38;101750.25;;;12.86;100.00
48668;BME280;34453;52.198;5.004;2023-05-11T06:29:05;101748.34;;;12.88;100.00
48668;BME280;34453;52.198;5.004;2023-05-11T06:31:31;101738.41;;;12.92;100.00
48668;BME280;34453;52.198;5.004;2023-05-11T06:33:57;101740.75;;;12.95;100.00
48668;BME280;34453;52.198;5.004;2023-05-11T06:36:22;101736.31;;;12.95;100.00
48668;BME280;34453;52.198;5.004;2023-05-11T06:38:48;101740.22;;;13.01;100.00
48668;BME280;34453;52.198;5.004;2023-05-11T06:41:13;101748.63;;;12.95;100.00
48668;BME280;34453;52.198;5.004;2023-05-11T06:43:39;101745.31;;;12.93;100.00
48668;BME280;34453;52.198;5.004;2023-05-11T06:46:04;101745.47;;;13.01;100.00
48668;BME280;34453;52.198;5.004;2023-05-11T06:48:30;101745.06;;;13.15;100.00
48668;BME280;34453;52.198;5.004;2023-05-11T06:50:56;101754.19;;;13.11;100.00
48668;BME280;34453;52.198;5.004;2023-05-11T06:53:21;101748.28;;;13.19;100.00
48668;BME280;34453;52.198;5.004;2023-05-11T06:55:47;101757.81;;;13.20;100.00
48668;BME280;34453;52.198;5.004;2023-05-11T06:58:13;101757.59;;;13.33;100.00
48668;BME280;34453;52.198;5.004;2023-05-11T07:00:38;101755.94;;;13.41;100.00
48668;BME280;34453;52.198;5.004;2023-05-11T07:03:04;101749.13;;;13.58;100.00
48668;BME280;34453;52.198;5.004;2023-05-11T07:05:30;101746.50;;;13.58;100.00
48668;BME280;34453;52.198;5.004;2023-05-11T07:07:56;101745.53;;;13.69;100.00
48668;BME280;34453;52.198;5.004;2023-05-11T07:10:22;101747.63;;;13.65;100.00
48668;BME280;34453;52.198;5.004;2023-05-11T07:12:48;101750.22;;;13.85;100.00
48668;BME280;34453;52.198;5.004;2023-05-11T07:15:13;101746.34;;;13.89;100.00
48668;BME280;34453;52.198;5.004;2023-05-11T07:17:39;101750.09;;;13.96;100.00
48668;BME280;34453;52.198;5.004;2023-05-11T07:20:05;101738.47;;;13.89;100.00
48668;BME280;34453;52.198;5.004;2023-05-11T07:22:30;101735.69;;;13.91;100.00
48668;BME280;34453;52.198;5.004;2023-05-11T07:24:56;101739.97;;;13.92;100.00
48668;BME280;34453;52.198;5.004;2023-05-11T07:27:21;101748.44;;;13.95;100.00
48668;BME280;34453;52.198;5.004;2023-05-11T07:29:47;101739.28;;;13.99;100.00
48668;BME280;34453;52.198;5.004;2023-05-11T07:32:13;101744.97;;;13.95;100.00
48668;BME280;34453;52.198;5.004;2023-05-11T07:34:38;101739.84;;;13.93;100.00
48668;BME280;34453;52.198;5.004;2023-05-11T07:37:05;101742.09;;;13.88;100.00
48668;BME280;34453;52.198;5.004;2023-05-11T07:39:32;101743.19;;;13.85;100.00
48668;BME280;34453;52.198;5.004;2023-05-11T07:41:58;101743.72;;;13.89;100.00
48668;BME280;34453;52.198;5.004;2023-05-11T07:44:23;101742.59;;;13.92;100.00
48668;BME280;34453;52.198;5.004;2023-05-11T07:46:49;101754.00;;;13.92;100.00
48668;BME280;34453;52.198;5.004;2023-05-11T07:49:15;101753.00;;;13.93;100.00
48668;BME280;34453;52.198;5.004;2023-05-11T07:51:40;101753.00;;;14.03;100.00
48668;BME280;34453;52.198;5.004;2023-05-11T07:54:06;101752.28;;;14.10;100.00
48668;BME280;34453;52.198;5.004;2023-05-11T07:56:31;101745.91;;;14.23;100.00
48668;BME280;34453;52.198;5.004;2023-05-11T07:58:57;101739.72;;;14.42;100.00
48668;BME280;34453;52.198;5.004;2023-05-11T08:01:22;101741.91;;;14.46;100.00
48668;BME280;34453;52.198;5.004;2023-05-11T08:03:48;101741.88;;;14.66;100.00
48668;BME280;34453;52.198;5.004;2023-05-11T08:06:14;101744.69;;;14.82;100.00
48668;BME280;34453;52.198;5.004;2023-05-11T08:08:39;101734.03;;;14.84;100.00
48668;BME280;34453;52.198;5.004;2023-05-11T08:11:04;101733.91;;;15.03;100.00
48668;BME280;34453;52.198;5.004;2023-05-11T08:13:30;101726.16;;;15.20;100.00
48668;BME280;34453;52.198;5.004;2023-05-11T08:15:55;101723.00;;;15.34;100.00
48668;BME280;34453;52.198;5.004;2023-05-11T08:18:21;101719.84;;;15.30;100.00
48668;BME280;34453;52.198;5.004;2023-05-11T08:20:47;101716.38;;;15.30;100.00
48668;BME280;34453;52.198;5.004;2023-05-11T08:23:12;101715.34;;;15.41;100.00
48668;BME280;34453;52.198;5.004;2023-05-11T08:25:52;101715.84;;;15.26;100.00
48668;BME280;34453;52.198;5.004;2023-05-11T08:28:18;101718.41;;;15.54;100.00
48668;BME280;34453;52.198;5.004;2023-05-11T08:30:44;101710.41;;;15.82;100.00
48668;BME280;34453;52.198;5.004;2023-05-11T08:33:10;101714.34;;;16.04;100.00
48668;BME280;34453;52.198;5.004;2023-05-11T08:35:37;101719.75;;;16.02;100.00
48668;BME280;34453;52.198;5.004;2023-05-11T08:38:03;101715.16;;;16.04;100.00
48668;BME280;34453;52.198;5.004;2023-05-11T08:40:29;101713.59;;;16.20;100.00
48668;BME280;34453;52.198;5.004;2023-05-11T08:42:55;101716.28;;;16.28;100.00
48668;BME280;34453;52.198;5.004;2023-05-11T08:45:24;101709.41;;;16.09;100.00
48668;BME280;34453;52.198;5.004;2023-05-11T08:47:51;101714.13;;;15.97;100.00
48668;BME280;34453;52.198;5.004;2023-05-11T08:50:17;101716.81;;;15.79;100.00
48668;BME280;34453;52.198;5.004;2023-05-11T08:52:43;101721.56;;;15.75;100.00
48668;BME280;34453;52.198;5.004;2023-05-11T08:55:08;101720.34;;;15.88;100.00
48668;BME280;34453;52.198;5.004;2023-05-11T08:57:34;101717.03;;;15.86;100.00
48668;BME280;34453;52.198;5.004;2023-05-11T09:00:03;101720.19;;;15.71;100.00
48668;BME280;34453;52.198;5.004;2023-05-11T09:02:29;101706.72;;;15.57;100.00
48668;BME280;34453;52.198;5.004;2023-05-11T09:04:57;101720.72;;;15.57;100.00
48668;BME280;34453;52.198;5.004;2023-05-11T09:07:23;101718.03;;;15.49;100.00
48668;BME280;34453;52.198;5.004;2023-05-11T09:09:49;101712.03;;;15.65;100.00
48668;BME280;34453;52.198;5.004;2023-05-11T09:12:15;101714.19;;;15.79;100.00
48668;BME280;34453;52.198;5.004;2023-05-11T09:14:41;101701.88;;;15.88;100.00
48668;BME280;34453;52.198;5.004;2023-05-11T09:17:07;101711.28;;;16.16;100.00
48668;BME280;34453;52.198;5.004;2023-05-11T09:19:33;101709.97;;;16.21;100.00
48668;BME280;34453;52.198;5.004;2023-05-11T09:21:58;101713.28;;;16.23;100.00
48668;BME280;34453;52.198;5.004;2023-05-11T09:24:24;101715.97;;;16.31;100.00
48668;BME280;34453;52.198;5.004;2023-05-11T09:27:05;101718.22;;;16.17;100.00
48668;BME280;34453;52.198;5.004;2023-05-11T09:29:30;101710.34;;;16.26;100.00
48668;BME280;34453;52.198;5.004;2023-05-11T09:34:22;101722.84;;;16.58;100.00
48668;BME280;34453;52.198;5.004;2023-05-11T09:36:50;101728.38;;;16.73;100.00
48668;BME280;34453;52.198;5.004;2023-05-11T09:39:16;101726.28;;;16.85;100.00
48668;BME280;34453;52.198;5.004;2023-05-11T09:41:44;101725.31;;;16.94;100.00
48668;BME280;34453;52.198;5.004;2023-05-11T09:44:14;101716.91;;;16.90;100.00
48668;BME280;34453;52.198;5.004;2023-05-11T09:46:41;101716.56;;;16.93;100.00
48668;BME280;34453;52.198;5.004;2023-05-11T09:49:07;101723.50;;;17.03;100.00
48668;BME280;34453;52.198;5.004;2023-05-11T09:51:37;101720.19;;;17.01;100.00
48668;BME280;34453;52.198;5.004;2023-05-11T09:54:18;101723.84;;;16.99;100.00
48668;BME280;34453;52.198;5.004;2023-05-11T09:56:52;101728.97;;;17.01;100.00
48668;BME280;34453;52.198;5.004;2023-05-11T09:59:40;101729.09;;;16.91;100.00
48668;BME280;34453;52.198;5.004;2023-05-11T10:02:15;101731.06;;;16.89;100.00
48668;BME280;34453;52.198;5.004;2023-05-11T10:04:41;101731.94;;;16.98;100.00
48668;BME280;34453;52.198;5.004;2023-05-11T10:07:06;101740.34;;;16.93;100.00
48668;BME280;34453;52.198;5.004;2023-05-11T10:09:32;101737.03;;;16.91;100.00
48668;BME280;34453;52.198;5.004;2023-05-11T10:11:59;101742.97;;;16.85;100.00
48668;BME280;34453;52.198;5.004;2023-05-11T10:14:26;101745.56;;;16.77;100.00
48668;BME280;34453;52.198;5.004;2023-05-11T10:16:56;101742.22;;;16.67;100.00
48668;BME280;34453;52.198;5.004;2023-05-11T10:19:22;101740.00;;;16.54;100.00
48668;BME280;34453;52.198;5.004;2023-05-11T10:21:48;101742.81;;;16.52;100.00
48668;BME280;34453;52.198;5.004;2023-05-11T10:24:15;101742.50;;;16.55;100.00
48668;BME280;34453;52.198;5.004;2023-05-11T10:26:41;101738.34;;;16.53;100.00
48668;BME280;34453;52.198;5.004;2023-05-11T10:29:08;101734.22;;;16.50;100.00
48668;BME280;34453;52.198;5.004;2023-05-11T10:31:34;101725.56;;;16.32;100.00
48668;BME280;34453;52.198;5.004;2023-05-11T10:34:02;101741.69;;;16.29;100.00
48668;BME280;34453;52.198;5.004;2023-05-11T10:36:29;101731.34;;;16.35;100.00
48668;BME280;34453;52.198;5.004;2023-05-11T10:38:55;101750.69;;;16.44;100.00
48668;BME280;34453;52.198;5.004;2023-05-11T10:50:32;101743.22;;;16.74;100.00
48668;BME280;34453;52.198;5.004;2023-05-11T10:53:36;101749.16;;;16.76;100.00
48668;BME280;34453;52.198;5.004;2023-05-11T10:59:15;101755.78;;;16.72;100.00
48668;BME280;34453;52.198;5.004;2023-05-11T11:01:45;101746.53;;;16.68;100.00
48668;BME280;34453;52.198;5.004;2023-05-11T11:04:12;101756.28;;;16.75;100.00
48668;BME280;34453;52.198;5.004;2023-05-11T11:06:40;101749.84;;;16.70;100.00
48668;BME280;34453;52.198;5.004;2023-05-11T11:09:13;101743.41;;;16.72;100.00
48668;BME280;34453;52.198;5.004;2023-05-11T11:11:45;101748.00;;;16.70;100.00
48668;BME280;34453;52.198;5.004;2023-05-11T11:14:12;101741.53;;;16.65;100.00
48668;BME280;34453;52.198;5.004;2023-05-11T11:16:39;101740.66;;;16.56;100.00
48668;BME280;34453;52.198;5.004;2023-05-11T11:22:04;101749.75;;;16.53;100.00
48668;BME280;34453;52.198;5.004;2023-05-11T11:27:01;101741.81;;;16.45;100.00
48668;BME280;34453;52.198;5.004;2023-05-11T11:29:28;101744.44;;;16.45;100.00
48668;BME280;34453;52.198;5.004;2023-05-11T11:31:54;101743.59;;;16.45;100.00
48668;BME280;34453;52.198;5.004;2023-05-11T11:44:37;101737.81;;;16.15;100.00
48668;BME280;34453;52.198;5.004;2023-05-11T11:49:42;101747.19;;;16.09;100.00
48668;BME280;34453;52.198;5.004;2023-05-11T11:52:12;101749.88;;;16.17;100.00
48668;BME280;34453;52.198;5.004;2023-05-11T11:54:43;101753.41;;;16.26;100.00
48668;BME280;34453;52.198;5.004;2023-05-11T11:59:53;101761.78;;;16.22;100.00
48668;BME280;34453;52.198;5.004;2023-05-11T12:02:19;101756.03;;;16.26;100.00
48668;BME280;34453;52.198;5.004;2023-05-11T12:07:40;101750.91;;;16.25;100.00
48668;BME280;34453;52.198;5.004;2023-05-11T12:10:06;101749.88;;;16.17;100.00
48668;BME280;34453;52.198;5.004;2023-05-11T12:12:32;101756.16;;;16.16;100.00
48668;BME280;34453;52.198;5.004;2023-05-11T12:14:57;101755.56;;;16.05;100.00
48668;BME280;34453;52.198;5.004;2023-05-11T12:17:27;101760.09;;;16.12;100.00
48668;BME280;34453;52.198;5.004;2023-05-11T12:19:54;101759.47;;;16.19;100.00
48668;BME280;34453;52.198;5.004;2023-05-11T12:22:35;101752.94;;;16.31;100.00
48668;BME280;34453;52.198;5.004;2023-05-11T12:25:04;101747.59;;;16.23;100.00
48668;BME280;34453;52.198;5.004;2023-05-11T12:27:30;101758.34;;;16.29;100.00
48668;BME280;34453;52.198;5.004;2023-05-11T12:29:56;101761.19;;;16.36;100.00
48668;BME280;34453;52.198;5.004;2023-05-11T12:32:29;101753.94;;;16.38;100.00
48668;BME280;34453;52.198;5.004;2023-05-11T12:35:01;101742.97;;;16.51;100.00
48668;BME280;34453;52.198;5.004;2023-05-11T12:37:29;101743.59;;;16.79;100.00
48668;BME280;34453;52.198;5.004;2023-05-11T12:39:56;101742.00;;;16.94;100.00
48668;BME280;34453;52.198;5.004;2023-05-11T12:42:21;101731.47;;;17.11;100.00
48668;BME280;34453;52.198;5.004;2023-05-11T12:44:47;101737.09;;;17.24;100.00
48668;BME280;34453;52.198;5.004;2023-05-11T12:47:13;101736.44;;;17.38;100.00
48668;BME280;34453;52.198;5.004;2023-05-11T12:49:42;101731.84;;;17.49;100.00
48668;BME280;34453;52.198;5.004;2023-05-11T12:52:08;101743.25;;;17.57;100.00
48668;BME280;34453;52.198;5.004;2023-05-11T12:54:39;101734.16;;;17.52;100.00
48668;BME280;34453;52.198;5.004;2023-05-11T12:57:07;101740.09;;;17.54;100.00
48668;BME280;34453;52.198;5.004;2023-05-11T12:59:38;101731.53;;;17.68;100.00
48668;BME280;34453;52.198;5.004;2023-05-11T13:02:17;101739.28;;;17.61;100.00
48668;BME280;34453;52.198;5.004;2023-05-11T13:04:43;101738.31;;;17.54;100.00
48668;BME280;34453;52.198;5.004;2023-05-11T13:07:10;101743.56;;;17.38;100.00
48668;BME280;34453;52.198;5.004;2023-05-11T13:09:37;101741.41;;;17.17;100.00
48668;BME280;34453;52.198;5.004;2023-05-11T13:12:09;101742.06;;;17.19;100.00
48668;BME280;34453;52.198;5.004;2023-05-11T13:14:36;101737.44;;;17.13;100.00
48668;BME280;34453;52.198;5.004;2023-05-11T13:17:04;101746.03;;;17.15;100.00
48668;BME280;34453;52.198;5.004;2023-05-11T13:19:30;101747.63;;;16.99;100.00
48668;BME280;34453;52.198;5.004;2023-05-11T13:21:56;101750.13;;;17.01;100.00
48668;BME280;34453;52.198;5.004;2023-05-11T13:24:22;101744.69;;;17.11;100.00
48668;BME280;34453;52.198;5.004;2023-05-11T13:26:48;101749.63;;;17.14;100.00
48668;BME280;34453;52.198;5.004;2023-05-11T13:29:15;101744.03;;;17.09;100.00
48668;BME280;34453;52.198;5.004;2023-05-11T13:31:44;101742.03;;;17.11;100.00